sensor_id;sensor_type;location;lat;lon;timestamp;P1;durP1;ratioP1;P2;durP2;ratioP2
29432;SDS011;16405;53.964;13.448;2024-03-25T00:04:35;6.45;;;3.50;;
29432;SDS011;16405;53.964;13.448;2024-03-25T00:28:03;8.50;;;4.80;;
29432;SDS011;16405;53.964;13.448;2024-03-25T00:40:05;5.35;;;3.35;;
29432;SDS011;16405;53.964;13.448;2024-03-25T00:43:33;9.63;;;3.35;;
29432;SDS011;16405;53.964;13.448;2024-03-25T00:49:28;6.28;;;3.15;;
29432;SDS011;16405;53.964;13.448;2024-03-25T00:52:24;6.63;;;3.67;;
29432;SDS011;16405;53.964;13.448;2024-03-25T00:55:03;7.22;;;4.32;;
29432;SDS011;16405;53.964;13.448;2024-03-25T01:00:53;8.15;;;3.50;;
29432;SDS011;16405;53.964;13.448;2024-03-25T01:03:19;5.88;;;2.88;;
29432;SDS011;16405;53.964;13.448;2024-03-25T01:06:28;5.15;;;2.80;;
29432;SDS011;16405;53.964;13.448;2024-03-25T01:12:34;7.82;;;2.60;;
29432;SDS011;16405;53.964;13.448;2024-03-25T01:15:03;6.40;;;2.33;;
29432;SDS011;16405;53.964;13.448;2024-03-25T01:36:52;6.72;;;2.60;;
29432;SDS011;16405;53.964;13.448;2024-03-25T01:39:18;5.93;;;3.00;;
29432;SDS011;16405;53.964;13.448;2024-03-25T01:46:16;7.90;;;2.85;;
29432;SDS011;16405;53.964;13.448;2024-03-25T01:49:12;4.55;;;3.13;;
29432;SDS011;16405;53.964;13.448;2024-03-25T01:55:34;6.15;;;3.47;;
29432;SDS011;16405;53.964;13.448;2024-03-25T02:01:07;10.35;;;2.97;;
29432;SDS011;16405;53.964;13.448;2024-03-25T02:04:06;4.97;;;2.85;;
29432;SDS011;16405;53.964;13.448;2024-03-25T02:06:46;8.00;;;3.25;;
29432;SDS011;16405;53.964;13.448;2024-03-25T02:15:14;11.45;;;3.50;;
29432;SDS011;16405;53.964;13.448;2024-03-25T02:17:55;7.85;;;3.75;;
29432;SDS011;16405;53.964;13.448;2024-03-25T02:23:49;7.22;;;3.10;;
29432;SDS011;16405;53.964;13.448;2024-03-25T02:26:44;6.28;;;3.25;;
29432;SDS011;16405;53.964;13.448;2024-03-25T02:29:09;7.68;;;3.90;;
29432;SDS011;16405;53.964;13.448;2024-03-25T02:36:06;6.97;;;3.70;;
29432;SDS011;16405;53.964;13.448;2024-03-25T02:38:45;9.48;;;4.68;;
29432;SDS011;16405;53.964;13.448;2024-03-25T02:45:07;9.95;;;5.18;;
29432;SDS011;16405;53.964;13.448;2024-03-25T02:47:36;9.25;;;5.07;;
29432;SDS011;16405;53.964;13.448;2024-03-25T02:52:55;13.10;;;5.47;;
29432;SDS011;16405;53.964;13.448;2024-03-25T03:05:42;14.00;;;5.63;;
29432;SDS011;16405;53.964;13.448;2024-03-25T03:10:47;13.18;;;5.57;;
29432;SDS011;16405;53.964;13.448;2024-03-25T03:13:25;12.32;;;5.65;;
29432;SDS011;16405;53.964;13.448;2024-03-25T03:19:35;12.40;;;6.18;;
29432;SDS011;16405;53.964;13.448;2024-03-25T03:25:12;10.95;;;5.65;;
29432;SDS011;16405;53.964;13.448;2024-03-25T03:27:47;15.35;;;6.30;;
29432;SDS011;16405;53.964;13.448;2024-03-25T03:30:13;13.63;;;5.95;;
29432;SDS011;16405;53.964;13.448;2024-03-25T03:32:39;12.80;;;6.43;;
29432;SDS011;16405;53.964;13.448;2024-03-25T03:35:47;15.20;;;6.05;;
29432;SDS011;16405;53.964;13.448;2024-03-25T03:41:07;15.45;;;6.03;;
29432;SDS011;16405;53.964;13.448;2024-03-25T03:43:47;16.70;;;6.18;;
29432;SDS011;16405;53.964;13.448;2024-03-25T03:49:57;19.98;;;7.10;;
29432;SDS011;16405;53.964;13.448;2024-03-25T03:52:36;23.27;;;8.05;;
29432;SDS011;16405;53.964;13.448;2024-03-25T03:55:18;17.95;;;8.27;;
29432;SDS011;16405;53.964;13.448;2024-03-25T03:57:44;18.35;;;7.53;;
29432;SDS011;16405;53.964;13.448;2024-03-25T04:10:46;20.00;;;8.27;;
29432;SDS011;16405;53.964;13.448;2024-03-25T04:17:08;21.00;;;8.30;;
29432;SDS011;16405;53.964;13.448;2024-03-25T04:19:48;33.38;;;10.57;;
29432;SDS011;16405;53.964;13.448;2024-03-25T04:26:14;28.00;;;9.65;;
29432;SDS011;16405;53.964;13.448;2024-03-25T04:28:53;24.05;;;9.40;;
29432;SDS011;16405;53.964;13.448;2024-03-25T04:34:46;32.28;;;11.35;;
29432;SDS011;16405;53.964;13.448;2024-03-25T04:40:07;61.70;;;23.55;;
29432;SDS011;16405;53.964;13.448;2024-03-25T04:48:54;42.97;;;16.45;;
29432;SDS011;16405;53.964;13.448;2024-03-25T04:54:16;55.20;;;24.20;;
29432;SDS011;16405;53.964;13.448;2024-03-25T05:00:34;45.55;;;17.60;;
29432;SDS011;16405;53.964;13.448;2024-03-25T05:03:02;43.22;;;16.55;;
29432;SDS011;16405;53.964;13.448;2024-03-25T05:05:29;41.35;;;16.52;;
29432;SDS011;16405;53.964;13.448;2024-03-25T05:08:35;42.85;;;12.90;;
29432;SDS011;16405;53.964;13.448;2024-03-25T05:14:15;72.28;;;11.13;;
29432;SDS011;16405;53.964;13.448;2024-03-25T05:22:13;45.65;;;12.18;;
29432;SDS011;16405;53.964;13.448;2024-03-25T05:24:39;41.10;;;14.13;;
29432;SDS011;16405;53.964;13.448;2024-03-25T05:27:18;54.72;;;16.40;;
29432;SDS011;16405;53.964;13.448;2024-03-25T05:32:35;49.15;;;14.85;;
29432;SDS011;16405;53.964;13.448;2024-03-25T05:43:48;49.40;;;16.52;;
29432;SDS011;16405;53.964;13.448;2024-03-25T05:46:29;44.72;;;14.38;;
29432;SDS011;16405;53.964;13.448;2024-03-25T05:49:46;44.97;;;14.98;;
29432;SDS011;16405;53.964;13.448;2024-03-25T05:52:35;45.88;;;14.82;;
29432;SDS011;16405;53.964;13.448;2024-03-25T05:55:04;41.47;;;14.27;;
29432;SDS011;16405;53.964;13.448;2024-03-25T06:00:34;41.20;;;14.88;;
29432;SDS011;16405;53.964;13.448;2024-03-25T06:06:17;42.67;;;15.57;;
29432;SDS011;16405;53.964;13.448;2024-03-25T06:09:25;40.70;;;14.93;;
29432;SDS011;16405;53.964;13.448;2024-03-25T06:12:03;52.25;;;16.13;;
29432;SDS011;16405;53.964;13.448;2024-03-25T06:20:36;42.17;;;16.13;;
29432;SDS011;16405;53.964;13.448;2024-03-25T06:23:05;45.13;;;15.80;;
29432;SDS011;16405;53.964;13.448;2024-03-25T06:32:57;43.58;;;16.38;;
29432;SDS011;16405;53.964;13.448;2024-03-25T06:35:48;41.63;;;13.93;;
29432;SDS011;16405;53.964;13.448;2024-03-25T06:48:07;33.30;;;14.25;;
29432;SDS011;16405;53.964;13.448;2024-03-25T06:54:46;36.67;;;15.20;;
29432;SDS011;16405;53.964;13.448;2024-03-25T07:00:38;35.83;;;14.35;;
29432;SDS011;16405;53.964;13.448;2024-03-25T07:03:14;31.77;;;13.93;;
29432;SDS011;16405;53.964;13.448;2024-03-25T07:05:43;33.40;;;13.23;;
29432;SDS011;16405;53.964;13.448;2024-03-25T07:14:14;39.95;;;14.98;;
29432;SDS011;16405;53.964;13.448;2024-03-25T07:16:56;37.83;;;15.40;;
29432;SDS011;16405;53.964;13.448;2024-03-25T07:19:29;38.53;;;15.05;;
29432;SDS011;16405;53.964;13.448;2024-03-25T07:22:45;40.38;;;15.27;;
29432;SDS011;16405;53.964;13.448;2024-03-25T07:25:29;33.97;;;13.95;;
29432;SDS011;16405;53.964;13.448;2024-03-25T07:28:25;36.42;;;14.80;;
29432;SDS011;16405;53.964;13.448;2024-03-25T07:42:27;33.60;;;13.18;;
29432;SDS011;16405;53.964;13.448;2024-03-25T07:44:55;33.25;;;14.13;;
29432;SDS011;16405;53.964;13.448;2024-03-25T07:47:22;35.97;;;15.32;;
29432;SDS011;16405;53.964;13.448;2024-03-25T07:53:45;27.33;;;11.93;;
29432;SDS011;16405;53.964;13.448;2024-03-25T08:03:01;35.58;;;16.33;;
29432;SDS011;16405;53.964;13.448;2024-03-25T08:05:40;44.13;;;16.40;;
29432;SDS011;16405;53.964;13.448;2024-03-25T08:08:36;35.88;;;14.88;;
29432;SDS011;16405;53.964;13.448;2024-03-25T08:11:06;41.65;;;15.80;;
29432;SDS011;16405;53.964;13.448;2024-03-25T08:13:58;36.35;;;15.95;;
29432;SDS011;16405;53.964;13.448;2024-03-25T08:16:37;39.63;;;15.95;;
29432;SDS011;16405;53.964;13.448;2024-03-25T08:21:46;49.90;;;18.52;;
29432;SDS011;16405;53.964;13.448;2024-03-25T08:28:35;39.33;;;16.73;;
29432;SDS011;16405;53.964;13.448;2024-03-25T08:31:04;41.03;;;16.65;;
29432;SDS011;16405;53.964;13.448;2024-03-25T08:33:41;51.67;;;17.73;;
29432;SDS011;16405;53.964;13.448;2024-03-25T08:36:57;39.35;;;16.50;;
29432;SDS011;16405;53.964;13.448;2024-03-25T08:39:35;41.03;;;17.60;;
29432;SDS011;16405;53.964;13.448;2024-03-25T08:42:16;38.47;;;18.48;;
29432;SDS011;16405;53.964;13.448;2024-03-25T08:44:42;40.33;;;17.85;;
29432;SDS011;16405;53.964;13.448;2024-03-25T08:48:07;49.67;;;18.90;;
29432;SDS011;16405;53.964;13.448;2024-03-25T08:56:58;41.53;;;17.60;;
29432;SDS011;16405;53.964;13.448;2024-03-25T09:00:07;40.55;;;16.02;;
29432;SDS011;16405;53.964;13.448;2024-03-25T09:02:44;33.85;;;14.63;;
29432;SDS011;16405;53.964;13.448;2024-03-25T09:05:28;32.60;;;15.52;;
29432;SDS011;16405;53.964;13.448;2024-03-25T09:12:08;26.33;;;13.52;;
29432;SDS011;16405;53.964;13.448;2024-03-25T09:14:47;30.92;;;14.80;;
29432;SDS011;16405;53.964;13.448;2024-03-25T09:17:28;24.40;;;12.82;;
29432;SDS011;16405;53.964;13.448;2024-03-25T09:22:47;19.77;;;10.10;;
29432;SDS011;16405;53.964;13.448;2024-03-25T09:25:29;28.27;;;13.45;;
29432;SDS011;16405;53.964;13.448;2024-03-25T09:28:07;23.55;;;12.45;;
29432;SDS011;16405;53.964;13.448;2024-03-25T09:34:18;23.02;;;12.13;;
29432;SDS011;16405;53.964;13.448;2024-03-25T09:37:27;21.65;;;11.68;;
29432;SDS011;16405;53.964;13.448;2024-03-25T09:40:09;21.17;;;11.50;;
29432;SDS011;16405;53.964;13.448;2024-03-25T10:05:57;17.67;;;8.55;;
29432;SDS011;16405;53.964;13.448;2024-03-25T10:08:41;14.57;;;7.72;;
29432;SDS011;16405;53.964;13.448;2024-03-25T10:11:36;12.80;;;7.93;;
29432;SDS011;16405;53.964;13.448;2024-03-25T10:17:58;15.10;;;9.02;;
29432;SDS011;16405;53.964;13.448;2024-03-25T10:20:36;15.95;;;8.68;;
29432;SDS011;16405;53.964;13.448;2024-03-25T10:23:15;13.77;;;8.95;;
29432;SDS011;16405;53.964;13.448;2024-03-25T10:26:28;16.65;;;8.00;;
29432;SDS011;16405;53.964;13.448;2024-03-25T10:29:07;17.60;;;8.10;;
29432;SDS011;16405;53.964;13.448;2024-03-25T10:31:58;6.93;;;4.32;;
29432;SDS011;16405;53.964;13.448;2024-03-25T10:34:48;6.97;;;4.00;;
29432;SDS011;16405;53.964;13.448;2024-03-25T10:37:58;6.30;;;3.35;;
29432;SDS011;16405;53.964;13.448;2024-03-25T10:40:38;6.55;;;3.67;;
29432;SDS011;16405;53.964;13.448;2024-03-25T10:45:46;13.07;;;4.95;;
29432;SDS011;16405;53.964;13.448;2024-03-25T11:00:07;6.78;;;3.50;;
29432;SDS011;16405;53.964;13.448;2024-03-25T11:02:49;4.50;;;2.95;;
29432;SDS011;16405;53.964;13.448;2024-03-25T11:15:19;7.45;;;4.03;;
29432;SDS011;16405;53.964;13.448;2024-03-25T11:17:55;4.90;;;3.45;;
29432;SDS011;16405;53.964;13.448;2024-03-25T11:20:39;7.65;;;4.13;;
29432;SDS011;16405;53.964;13.448;2024-03-25T11:23:47;6.25;;;4.45;;
29432;SDS011;16405;53.964;13.448;2024-03-25T11:26:28;6.32;;;3.83;;
29432;SDS011;16405;53.964;13.448;2024-03-25T11:33:00;4.80;;;3.13;;
29432;SDS011;16405;53.964;13.448;2024-03-25T11:46:10;2.00;;;1.25;;
29432;SDS011;16405;53.964;13.448;2024-03-25T11:52:09;1.42;;;1.10;;
29432;SDS011;16405;53.964;13.448;2024-03-25T11:54:53;2.80;;;1.45;;
29432;SDS011;16405;53.964;13.448;2024-03-25T11:57:25;2.95;;;2.05;;
29432;SDS011;16405;53.964;13.448;2024-03-25T12:14:28;2.30;;;1.52;;
29432;SDS011;16405;53.964;13.448;2024-03-25T12:20:08;4.43;;;2.03;;
29432;SDS011;16405;53.964;13.448;2024-03-25T12:30:15;4.38;;;2.00;;
29432;SDS011;16405;53.964;13.448;2024-03-25T12:33:10;4.03;;;1.70;;
29432;SDS011;16405;53.964;13.448;2024-03-25T12:35:49;5.15;;;2.10;;
29432;SDS011;16405;53.964;13.448;2024-03-25T12:38:28;3.95;;;1.65;;
29432;SDS011;16405;53.964;13.448;2024-03-25T12:48:38;7.30;;;1.48;;
29432;SDS011;16405;53.964;13.448;2024-03-25T12:51:49;5.53;;;2.20;;
29432;SDS011;16405;53.964;13.448;2024-03-25T12:54:17;3.90;;;2.10;;
29432;SDS011;16405;53.964;13.448;2024-03-25T12:57:08;4.28;;;2.60;;
29432;SDS011;16405;53.964;13.448;2024-03-25T12:59:49;6.03;;;2.53;;
29432;SDS011;16405;53.964;13.448;2024-03-25T13:06:18;7.03;;;2.28;;
29432;SDS011;16405;53.964;13.448;2024-03-25T13:12:38;6.30;;;2.20;;
29432;SDS011;16405;53.964;13.448;2024-03-25T13:15:16;4.13;;;1.65;;
29432;SDS011;16405;53.964;13.448;2024-03-25T13:17:43;11.80;;;2.15;;
29432;SDS011;16405;53.964;13.448;2024-03-25T13:20:38;8.45;;;2.67;;
29432;SDS011;16405;53.964;13.448;2024-03-25T13:23:18;5.22;;;2.25;;
29432;SDS011;16405;53.964;13.448;2024-03-25T13:25:44;5.53;;;2.40;;
29432;SDS011;16405;53.964;13.448;2024-03-25T13:32:26;5.93;;;1.70;;
29432;SDS011;16405;53.964;13.448;2024-03-25T13:35:21;2.78;;;1.30;;
29432;SDS011;16405;53.964;13.448;2024-03-25T13:38:11;2.78;;;0.98;;
29432;SDS011;16405;53.964;13.448;2024-03-25T13:44:07;4.97;;;1.92;;
29432;SDS011;16405;53.964;13.448;2024-03-25T13:50:18;4.82;;;1.80;;
29432;SDS011;16405;53.964;13.448;2024-03-25T13:56:41;6.85;;;2.80;;
29432;SDS011;16405;53.964;13.448;2024-03-25T14:02:28;5.30;;;2.85;;
29432;SDS011;16405;53.964;13.448;2024-03-25T14:04:57;6.18;;;3.05;;
29432;SDS011;16405;53.964;13.448;2024-03-25T14:07:38;5.43;;;2.75;;
29432;SDS011;16405;53.964;13.448;2024-03-25T14:11:17;5.70;;;2.85;;
29432;SDS011;16405;53.964;13.448;2024-03-25T14:13:44;6.78;;;3.08;;
29432;SDS011;16405;53.964;13.448;2024-03-25T14:16:19;6.43;;;3.55;;
29432;SDS011;16405;53.964;13.448;2024-03-25T14:18:47;5.95;;;2.47;;
29432;SDS011;16405;53.964;13.448;2024-03-25T14:24:57;6.68;;;2.80;;
29432;SDS011;16405;53.964;13.448;2024-03-25T14:28:39;5.32;;;2.78;;
29432;SDS011;16405;53.964;13.448;2024-03-25T14:31:22;8.20;;;3.08;;
29432;SDS011;16405;53.964;13.448;2024-03-25T14:34:12;7.25;;;2.83;;
29432;SDS011;16405;53.964;13.448;2024-03-25T14:36:41;7.53;;;2.83;;
29432;SDS011;16405;53.964;13.448;2024-03-25T14:49:30;3.38;;;1.73;;
29432;SDS011;16405;53.964;13.448;2024-03-25T14:51:36;3.17;;;2.00;;
29432;SDS011;16405;53.964;13.448;2024-03-25T14:54:18;3.75;;;1.27;;
29432;SDS011;16405;53.964;13.448;2024-03-25T14:57:24;4.00;;;1.70;;
29432;SDS011;16405;53.964;13.448;2024-03-25T14:59:50;4.72;;;1.65;;
29432;SDS011;16405;53.964;13.448;2024-03-25T15:02:16;2.67;;;1.58;;
29432;SDS011;16405;53.964;13.448;2024-03-25T15:04:41;3.67;;;1.50;;
29432;SDS011;16405;53.964;13.448;2024-03-25T15:07:13;5.32;;;1.65;;
29432;SDS011;16405;53.964;13.448;2024-03-25T15:09:39;2.33;;;1.40;;
29432;SDS011;16405;53.964;13.448;2024-03-25T15:12:04;2.08;;;1.20;;
29432;SDS011;16405;53.964;13.448;2024-03-25T15:14:31;1.08;;;0.93;;
29432;SDS011;16405;53.964;13.448;2024-03-25T15:16:57;3.97;;;1.10;;
29432;SDS011;16405;53.964;13.448;2024-03-25T15:19:29;4.43;;;1.00;;
29432;SDS011;16405;53.964;13.448;2024-03-25T15:21:54;4.57;;;1.13;;
29432;SDS011;16405;53.964;13.448;2024-03-25T15:24:20;1.40;;;0.80;;
29432;SDS011;16405;53.964;13.448;2024-03-25T15:26:47;2.00;;;1.00;;
29432;SDS011;16405;53.964;13.448;2024-03-25T15:29:13;2.58;;;1.42;;
29432;SDS011;16405;53.964;13.448;2024-03-25T15:31:46;2.45;;;1.10;;
29432;SDS011;16405;53.964;13.448;2024-03-25T15:34:12;2.72;;;1.00;;
29432;SDS011;16405;53.964;13.448;2024-03-25T15:36:38;4.28;;;1.38;;
29432;SDS011;16405;53.964;13.448;2024-03-25T15:39:03;3.95;;;1.30;;
29432;SDS011;16405;53.964;13.448;2024-03-25T15:41:30;5.00;;;1.35;;
29432;SDS011;16405;53.964;13.448;2024-03-25T15:44:03;2.72;;;1.35;;
29432;SDS011;16405;53.964;13.448;2024-03-25T15:46:31;4.53;;;1.67;;
29432;SDS011;16405;53.964;13.448;2024-03-25T15:48:57;3.25;;;1.08;;
29432;SDS011;16405;53.964;13.448;2024-03-25T15:51:29;4.40;;;1.90;;
29432;SDS011;16405;53.964;13.448;2024-03-25T15:53:55;3.15;;;1.45;;
29432;SDS011;16405;53.964;13.448;2024-03-25T15:56:21;1.80;;;0.80;;
29432;SDS011;16405;53.964;13.448;2024-03-25T15:58:47;1.38;;;0.90;;
29432;SDS011;16405;53.964;13.448;2024-03-25T16:01:13;2.65;;;1.40;;
29432;SDS011;16405;53.964;13.448;2024-03-25T16:03:48;1.95;;;1.08;;
29432;SDS011;16405;53.964;13.448;2024-03-25T16:06:14;4.03;;;1.13;;
29432;SDS011;16405;53.964;13.448;2024-03-25T16:08:41;1.95;;;0.95;;
29432;SDS011;16405;53.964;13.448;2024-03-25T16:11:16;3.67;;;1.40;;
29432;SDS011;16405;53.964;13.448;2024-03-25T16:13:43;3.22;;;1.08;;
29432;SDS011;16405;53.964;13.448;2024-03-25T16:16:10;2.08;;;1.30;;
29432;SDS011;16405;53.964;13.448;2024-03-25T16:18:47;3.28;;;1.30;;
29432;SDS011;16405;53.964;13.448;2024-03-25T16:21:13;1.73;;;1.10;;
29432;SDS011;16405;53.964;13.448;2024-03-25T16:23:43;2.63;;;1.20;;
29432;SDS011;16405;53.964;13.448;2024-03-25T16:26:10;2.88;;;1.10;;
29432;SDS011;16405;53.964;13.448;2024-03-25T16:28:36;4.85;;;1.45;;
29432;SDS011;16405;53.964;13.448;2024-03-25T16:31:03;3.60;;;1.33;;
29432;SDS011;16405;53.964;13.448;2024-03-25T16:33:29;4.40;;;1.50;;
29432;SDS011;16405;53.964;13.448;2024-03-25T16:35:55;8.50;;;1.55;;
29432;SDS011;16405;53.964;13.448;2024-03-25T16:38:30;6.20;;;1.02;;
29432;SDS011;16405;53.964;13.448;2024-03-25T16:40:58;3.05;;;1.10;;
29432;SDS011;16405;53.964;13.448;2024-03-25T16:43:32;2.60;;;1.23;;
29432;SDS011;16405;53.964;13.448;2024-03-25T16:45:58;4.55;;;1.40;;
29432;SDS011;16405;53.964;13.448;2024-03-25T16:48:24;2.42;;;1.38;;
29432;SDS011;16405;53.964;13.448;2024-03-25T16:50:49;3.33;;;1.17;;
29432;SDS011;16405;53.964;13.448;2024-03-25T16:53:21;4.13;;;1.38;;
29432;SDS011;16405;53.964;13.448;2024-03-25T16:55:50;5.35;;;1.15;;
29432;SDS011;16405;53.964;13.448;2024-03-25T16:58:17;3.22;;;1.15;;
29432;SDS011;16405;53.964;13.448;2024-03-25T17:00:48;4.25;;;1.35;;
29432;SDS011;16405;53.964;13.448;2024-03-25T17:03:14;3.38;;;1.40;;
29432;SDS011;16405;53.964;13.448;2024-03-25T17:05:40;4.63;;;1.10;;
29432;SDS011;16405;53.964;13.448;2024-03-25T17:08:06;4.45;;;1.20;;
29432;SDS011;16405;53.964;13.448;2024-03-25T17:10:32;4.10;;;0.93;;
29432;SDS011;16405;53.964;13.448;2024-03-25T17:12:58;3.97;;;1.02;;
29432;SDS011;16405;53.964;13.448;2024-03-25T17:15:31;2.95;;;1.15;;
29432;SDS011;16405;53.964;13.448;2024-03-25T17:18:01;4.50;;;1.08;;
29432;SDS011;16405;53.964;13.448;2024-03-25T17:20:38;2.45;;;1.20;;
29432;SDS011;16405;53.964;13.448;2024-03-25T17:23:05;2.60;;;0.80;;
29432;SDS011;16405;53.964;13.448;2024-03-25T17:25:40;5.55;;;1.70;;
29432;SDS011;16405;53.964;13.448;2024-03-25T17:28:07;5.38;;;1.40;;
29432;SDS011;16405;53.964;13.448;2024-03-25T17:30:39;6.22;;;1.13;;
29432;SDS011;16405;53.964;13.448;2024-03-25T17:33:05;7.30;;;1.50;;
29432;SDS011;16405;53.964;13.448;2024-03-25T17:35:31;3.95;;;1.35;;
29432;SDS011;16405;53.964;13.448;2024-03-25T17:37:57;5.07;;;1.42;;
29432;SDS011;16405;53.964;13.448;2024-03-25T17:40:22;2.08;;;1.13;;
29432;SDS011;16405;53.964;13.448;2024-03-25T17:42:48;5.00;;;1.30;;
29432;SDS011;16405;53.964;13.448;2024-03-25T17:45:14;1.67;;;0.88;;
29432;SDS011;16405;53.964;13.448;2024-03-25T17:47:47;4.22;;;1.38;;
29432;SDS011;16405;53.964;13.448;2024-03-25T17:50:13;7.13;;;1.40;;
29432;SDS011;16405;53.964;13.448;2024-03-25T17:52:41;7.28;;;1.15;;
29432;SDS011;16405;53.964;13.448;2024-03-25T17:55:07;5.32;;;1.30;;
29432;SDS011;16405;53.964;13.448;2024-03-25T17:57:42;6.95;;;1.30;;
29432;SDS011;16405;53.964;13.448;2024-03-25T18:00:08;5.43;;;1.95;;
29432;SDS011;16405;53.964;13.448;2024-03-25T18:02:34;4.82;;;1.38;;
29432;SDS011;16405;53.964;13.448;2024-03-25T18:05:05;3.97;;;1.27;;
29432;SDS011;16405;53.964;13.448;2024-03-25T18:07:34;3.35;;;1.25;;
29432;SDS011;16405;53.964;13.448;2024-03-25T18:09:59;5.18;;;1.50;;
29432;SDS011;16405;53.964;13.448;2024-03-25T18:12:26;4.60;;;1.27;;
29432;SDS011;16405;53.964;13.448;2024-03-25T18:15:01;6.82;;;1.08;;
29432;SDS011;16405;53.964;13.448;2024-03-25T18:17:27;4.20;;;1.40;;
29432;SDS011;16405;53.964;13.448;2024-03-25T18:19:53;7.38;;;1.13;;
29432;SDS011;16405;53.964;13.448;2024-03-25T18:22:19;4.75;;;1.30;;
29432;SDS011;16405;53.964;13.448;2024-03-25T18:24:49;3.67;;;1.23;;
29432;SDS011;16405;53.964;13.448;2024-03-25T18:27:15;4.43;;;1.80;;
29432;SDS011;16405;53.964;13.448;2024-03-25T18:29:44;5.45;;;1.50;;
29432;SDS011;16405;53.964;13.448;2024-03-25T18:32:17;2.45;;;1.30;;
29432;SDS011;16405;53.964;13.448;2024-03-25T18:34:43;3.83;;;1.50;;
29432;SDS011;16405;53.964;13.448;2024-03-25T18:37:12;4.07;;;1.48;;
29432;SDS011;16405;53.964;13.448;2024-03-25T18:39:39;5.38;;;2.20;;
29432;SDS011;16405;53.964;13.448;2024-03-25T18:42:12;2.85;;;1.23;;
29432;SDS011;16405;53.964;13.448;2024-03-25T18:44:40;7.65;;;1.48;;
29432;SDS011;16405;53.964;13.448;2024-03-25T18:47:06;7.28;;;1.30;;
29432;SDS011;16405;53.964;13.448;2024-03-25T18:49:41;5.90;;;2.50;;
29432;SDS011;16405;53.964;13.448;2024-03-25T18:52:07;3.47;;;1.40;;
29432;SDS011;16405;53.964;13.448;2024-03-25T18:54:32;2.90;;;1.33;;
29432;SDS011;16405;53.964;13.448;2024-03-25T18:56:58;4.63;;;1.40;;
29432;SDS011;16405;53.964;13.448;2024-03-25T18:59:32;5.05;;;1.80;;
29432;SDS011;16405;53.964;13.448;2024-03-25T19:01:57;7.32;;;1.88;;
29432;SDS011;16405;53.964;13.448;2024-03-25T19:04:23;7.13;;;2.00;;
29432;SDS011;16405;53.964;13.448;2024-03-25T19:06:49;6.00;;;1.70;;
29432;SDS011;16405;53.964;13.448;2024-03-25T19:09:19;5.68;;;2.15;;
29432;SDS011;16405;53.964;13.448;2024-03-25T19:11:45;4.07;;;1.90;;
29432;SDS011;16405;53.964;13.448;2024-03-25T19:14:11;6.80;;;2.83;;
29432;SDS011;16405;53.964;13.448;2024-03-25T19:16:37;4.45;;;2.15;;
29432;SDS011;16405;53.964;13.448;2024-03-25T19:19:03;9.10;;;1.80;;
29432;SDS011;16405;53.964;13.448;2024-03-25T19:21:32;4.07;;;1.70;;
29432;SDS011;16405;53.964;13.448;2024-03-25T19:24:08;9.57;;;2.35;;
29432;SDS011;16405;53.964;13.448;2024-03-25T19:26:41;3.72;;;1.60;;
29432;SDS011;16405;53.964;13.448;2024-03-25T19:29:07;3.40;;;1.80;;
29432;SDS011;16405;53.964;13.448;2024-03-25T19:31:36;3.58;;;1.45;;
29432;SDS011;16405;53.964;13.448;2024-03-25T19:34:12;2.97;;;1.48;;
29432;SDS011;16405;53.964;13.448;2024-03-25T19:36:38;6.18;;;1.50;;
29432;SDS011;16405;53.964;13.448;2024-03-25T19:39:09;4.35;;;1.42;;
29432;SDS011;16405;53.964;13.448;2024-03-25T19:41:41;5.25;;;1.77;;
29432;SDS011;16405;53.964;13.448;2024-03-25T19:44:16;3.00;;;1.52;;
29432;SDS011;16405;53.964;13.448;2024-03-25T19:46:45;3.45;;;1.63;;
29432;SDS011;16405;53.964;13.448;2024-03-25T19:49:13;4.32;;;1.80;;
29432;SDS011;16405;53.964;13.448;2024-03-25T19:51:43;3.70;;;1.88;;
29432;SDS011;16405;53.964;13.448;2024-03-25T19:54:09;7.95;;;2.08;;
29432;SDS011;16405;53.964;13.448;2024-03-25T19:56:35;5.72;;;1.80;;
29432;SDS011;16405;53.964;13.448;2024-03-25T19:59:07;5.60;;;2.55;;
29432;SDS011;16405;53.964;13.448;2024-03-25T20:01:38;3.85;;;1.90;;
29432;SDS011;16405;53.964;13.448;2024-03-25T20:04:08;5.82;;;2.25;;
29432;SDS011;16405;53.964;13.448;2024-03-25T20:06:47;4.68;;;1.85;;
29432;SDS011;16405;53.964;13.448;2024-03-25T20:09:16;2.65;;;1.70;;
29432;SDS011;16405;53.964;13.448;2024-03-25T20:11:45;3.97;;;1.30;;
29432;SDS011;16405;53.964;13.448;2024-03-25T20:14:11;7.22;;;1.65;;
29432;SDS011;16405;53.964;13.448;2024-03-25T20:16:44;4.57;;;2.00;;
29432;SDS011;16405;53.964;13.448;2024-03-25T20:19:13;6.40;;;2.00;;
29432;SDS011;16405;53.964;13.448;2024-03-25T20:21:42;10.32;;;2.33;;
29432;SDS011;16405;53.964;13.448;2024-03-25T20:24:13;5.03;;;2.45;;
29432;SDS011;16405;53.964;13.448;2024-03-25T20:26:41;4.20;;;1.95;;
29432;SDS011;16405;53.964;13.448;2024-03-25T20:29:13;7.20;;;2.33;;
29432;SDS011;16405;53.964;13.448;2024-03-25T20:31:48;6.07;;;1.92;;
29432;SDS011;16405;53.964;13.448;2024-03-25T20:34:20;10.48;;;2.35;;
29432;SDS011;16405;53.964;13.448;2024-03-25T20:36:53;4.88;;;1.60;;
29432;SDS011;16405;53.964;13.448;2024-03-25T20:39:19;4.53;;;1.40;;
29432;SDS011;16405;53.964;13.448;2024-03-25T20:42:00;2.05;;;1.00;;
29432;SDS011;16405;53.964;13.448;2024-03-25T20:44:29;1.85;;;1.20;;
29432;SDS011;16405;53.964;13.448;2024-03-25T20:46:58;2.53;;;1.33;;
29432;SDS011;16405;53.964;13.448;2024-03-25T20:49:24;3.65;;;1.20;;
29432;SDS011;16405;53.964;13.448;2024-03-25T20:51:56;3.58;;;1.42;;
29432;SDS011;16405;53.964;13.448;2024-03-25T20:54:28;1.20;;;0.90;;
29432;SDS011;16405;53.964;13.448;2024-03-25T20:56:59;2.47;;;1.27;;
29432;SDS011;16405;53.964;13.448;2024-03-25T20:59:29;3.15;;;1.25;;
29432;SDS011;16405;53.964;13.448;2024-03-25T21:01:55;5.93;;;1.48;;
29432;SDS011;16405;53.964;13.448;2024-03-25T21:04:32;2.67;;;1.42;;
29432;SDS011;16405;53.964;13.448;2024-03-25T21:07:01;4.38;;;1.98;;
29432;SDS011;16405;53.964;13.448;2024-03-25T21:09:30;3.63;;;2.17;;
29432;SDS011;16405;53.964;13.448;2024-03-25T21:12:01;8.77;;;3.60;;
29432;SDS011;16405;53.964;13.448;2024-03-25T21:14:32;8.27;;;3.03;;
29432;SDS011;16405;53.964;13.448;2024-03-25T21:17:06;11.38;;;3.70;;
29432;SDS011;16405;53.964;13.448;2024-03-25T21:19:33;5.97;;;3.45;;
29432;SDS011;16405;53.964;13.448;2024-03-25T21:22:01;2.55;;;1.55;;
29432;SDS011;16405;53.964;13.448;2024-03-25T21:24:33;4.20;;;1.77;;
29432;SDS011;16405;53.964;13.448;2024-03-25T21:26:59;3.47;;;1.92;;
29432;SDS011;16405;53.964;13.448;2024-03-25T21:29:24;5.95;;;3.13;;
29432;SDS011;16405;53.964;13.448;2024-03-25T21:31:51;9.40;;;3.60;;
29432;SDS011;16405;53.964;13.448;2024-03-25T21:34:50;11.43;;;3.75;;
29432;SDS011;16405;53.964;13.448;2024-03-25T21:37:21;6.50;;;3.60;;
29432;SDS011;16405;53.964;13.448;2024-03-25T21:39:50;9.75;;;5.10;;
29432;SDS011;16405;53.964;13.448;2024-03-25T21:42:16;11.30;;;4.90;;
29432;SDS011;16405;53.964;13.448;2024-03-25T21:44:42;12.02;;;4.80;;
29432;SDS011;16405;53.964;13.448;2024-03-25T21:47:17;10.68;;;5.60;;
29432;SDS011;16405;53.964;13.448;2024-03-25T21:49:43;10.75;;;4.53;;
29432;SDS011;16405;53.964;13.448;2024-03-25T21:52:18;12.15;;;5.85;;
29432;SDS011;16405;53.964;13.448;2024-03-25T21:54:44;16.40;;;5.78;;
29432;SDS011;16405;53.964;13.448;2024-03-25T21:57:11;15.73;;;5.70;;
29432;SDS011;16405;53.964;13.448;2024-03-25T21:59:48;11.85;;;6.28;;